sensor_id;sensor_type;location;lat;lon;timestamp;P1;durP1;ratioP1;P2;durP2;ratioP2
79229;SDS011;68663;49.122;17.544;2024-03-02T00:01:40;4.43;;;3.88;;
79229;SDS011;68663;49.122;17.544;2024-03-02T00:04:05;6.93;;;3.87;;
79229;SDS011;68663;49.122;17.544;2024-03-02T00:06:32;4.22;;;3.53;;
79229;SDS011;68663;49.122;17.544;2024-03-02T00:08:58;4.28;;;3.70;;
79229;SDS011;68663;49.122;17.544;2024-03-02T00:11:24;4.50;;;3.80;;
79229;SDS011;68663;49.122;17.544;2024-03-02T00:13:52;5.35;;;3.63;;
79229;SDS011;68663;49.122;17.544;2024-03-02T00:16:18;5.22;;;4.40;;
79229;SDS011;68663;49.122;17.544;2024-03-02T00:18:43;5.60;;;3.65;;
79229;SDS011;68663;49.122;17.544;2024-03-02T00:21:09;4.13;;;3.33;;
79229;SDS011;68663;49.122;17.544;2024-03-02T00:23:35;4.63;;;3.70;;
79229;SDS011;68663;49.122;17.544;2024-03-02T00:26:00;4.40;;;3.72;;
79229;SDS011;68663;49.122;17.544;2024-03-02T00:28:27;5.53;;;3.97;;
79229;SDS011;68663;49.122;17.544;2024-03-02T00:31:09;5.03;;;3.78;;
79229;SDS011;68663;49.122;17.544;2024-03-02T00:33:44;5.03;;;3.67;;
79229;SDS011;68663;49.122;17.544;2024-03-02T00:36:11;4.13;;;3.72;;
79229;SDS011;68663;49.122;17.544;2024-03-02T00:38:45;4.75;;;3.90;;
79229;SDS011;68663;49.122;17.544;2024-03-02T00:41:16;4.65;;;3.97;;
79229;SDS011;68663;49.122;17.544;2024-03-02T00:43:47;4.57;;;3.92;;
79229;SDS011;68663;49.122;17.544;2024-03-02T00:46:27;4.13;;;3.42;;
79229;SDS011;68663;49.122;17.544;2024-03-02T00:48:56;5.00;;;3.75;;
79229;SDS011;68663;49.122;17.544;2024-03-02T00:51:25;5.03;;;3.58;;
79229;SDS011;68663;49.122;17.544;2024-03-02T00:53:52;4.22;;;3.83;;
79229;SDS011;68663;49.122;17.544;2024-03-02T00:56:21;6.05;;;3.33;;
79229;SDS011;68663;49.122;17.544;2024-03-02T00:58:47;4.38;;;3.47;;
79229;SDS011;68663;49.122;17.544;2024-03-02T01:01:13;5.30;;;4.13;;
79229;SDS011;68663;49.122;17.544;2024-03-02T01:03:38;5.07;;;3.90;;
79229;SDS011;68663;49.122;17.544;2024-03-02T01:06:04;4.40;;;3.95;;
79229;SDS011;68663;49.122;17.544;2024-03-02T01:08:30;8.27;;;4.65;;
79229;SDS011;68663;49.122;17.544;2024-03-02T01:10:55;6.55;;;5.00;;
79229;SDS011;68663;49.122;17.544;2024-03-02T01:13:21;5.87;;;4.70;;
79229;SDS011;68663;49.122;17.544;2024-03-02T01:15:48;5.22;;;4.60;;
79229;SDS011;68663;49.122;17.544;2024-03-02T01:18:13;6.88;;;4.50;;
79229;SDS011;68663;49.122;17.544;2024-03-02T01:20:39;6.05;;;4.47;;
79229;SDS011;68663;49.122;17.544;2024-03-02T01:23:04;5.28;;;4.63;;
79229;SDS011;68663;49.122;17.544;2024-03-02T01:25:29;5.80;;;4.63;;
79229;SDS011;68663;49.122;17.544;2024-03-02T01:27:55;6.80;;;4.95;;
79229;SDS011;68663;49.122;17.544;2024-03-02T01:30:20;5.60;;;4.27;;
79229;SDS011;68663;49.122;17.544;2024-03-02T01:32:46;4.72;;;4.20;;
79229;SDS011;68663;49.122;17.544;2024-03-02T01:35:12;5.68;;;5.07;;
79229;SDS011;68663;49.122;17.544;2024-03-02T01:37:37;5.87;;;4.90;;
79229;SDS011;68663;49.122;17.544;2024-03-02T01:40:03;5.47;;;4.80;;
79229;SDS011;68663;49.122;17.544;2024-03-02T01:42:34;4.85;;;4.03;;
79229;SDS011;68663;49.122;17.544;2024-03-02T01:45:00;5.18;;;4.28;;
79229;SDS011;68663;49.122;17.544;2024-03-02T01:47:26;5.63;;;4.70;;
79229;SDS011;68663;49.122;17.544;2024-03-02T01:49:51;5.65;;;4.88;;
79229;SDS011;68663;49.122;17.544;2024-03-02T01:52:17;6.72;;;4.47;;
79229;SDS011;68663;49.122;17.544;2024-03-02T01:54:42;6.27;;;4.73;;
79229;SDS011;68663;49.122;17.544;2024-03-02T01:57:07;6.60;;;4.38;;
79229;SDS011;68663;49.122;17.544;2024-03-02T01:59:33;5.78;;;4.78;;
79229;SDS011;68663;49.122;17.544;2024-03-02T02:01:58;5.97;;;4.40;;
79229;SDS011;68663;49.122;17.544;2024-03-02T02:04:24;4.75;;;3.90;;
79229;SDS011;68663;49.122;17.544;2024-03-02T02:06:52;5.95;;;4.68;;
79229;SDS011;68663;49.122;17.544;2024-03-02T02:09:18;5.85;;;4.60;;
79229;SDS011;68663;49.122;17.544;2024-03-02T02:11:44;5.43;;;4.13;;
79229;SDS011;68663;49.122;17.544;2024-03-02T02:14:09;4.60;;;4.18;;
79229;SDS011;68663;49.122;17.544;2024-03-02T02:16:36;6.60;;;4.25;;
79229;SDS011;68663;49.122;17.544;2024-03-02T02:19:01;4.53;;;4.10;;
79229;SDS011;68663;49.122;17.544;2024-03-02T02:21:27;5.90;;;4.70;;
79229;SDS011;68663;49.122;17.544;2024-03-02T02:23:52;4.80;;;3.90;;
79229;SDS011;68663;49.122;17.544;2024-03-02T02:26:18;5.13;;;4.40;;
79229;SDS011;68663;49.122;17.544;2024-03-02T02:28:43;4.70;;;4.20;;
79229;SDS011;68663;49.122;17.544;2024-03-02T02:31:12;6.28;;;4.95;;
79229;SDS011;68663;49.122;17.544;2024-03-02T02:33:41;5.10;;;4.50;;
79229;SDS011;68663;49.122;17.544;2024-03-02T02:36:07;5.00;;;4.43;;
79229;SDS011;68663;49.122;17.544;2024-03-02T02:38:35;6.22;;;4.68;;
79229;SDS011;68663;49.122;17.544;2024-03-02T02:41:03;4.63;;;3.80;;
79229;SDS011;68663;49.122;17.544;2024-03-02T02:43:29;4.47;;;4.00;;
79229;SDS011;68663;49.122;17.544;2024-03-02T02:45:54;4.87;;;3.90;;
79229;SDS011;68663;49.122;17.544;2024-03-02T02:48:20;5.33;;;4.30;;
79229;SDS011;68663;49.122;17.544;2024-03-02T02:50:45;5.38;;;4.38;;
79229;SDS011;68663;49.122;17.544;2024-03-02T02:53:11;5.00;;;4.43;;
79229;SDS011;68663;49.122;17.544;2024-03-02T02:55:36;4.97;;;4.47;;
79229;SDS011;68663;49.122;17.544;2024-03-02T02:58:05;4.88;;;4.38;;
79229;SDS011;68663;49.122;17.544;2024-03-02T03:00:31;4.28;;;3.75;;
79229;SDS011;68663;49.122;17.544;2024-03-02T03:02:57;7.80;;;4.20;;
79229;SDS011;68663;49.122;17.544;2024-03-02T03:05:23;4.90;;;4.38;;
79229;SDS011;68663;49.122;17.544;2024-03-02T03:07:48;4.10;;;3.53;;
79229;SDS011;68663;49.122;17.544;2024-03-02T03:10:15;4.47;;;4.07;;
79229;SDS011;68663;49.122;17.544;2024-03-02T03:12:41;4.35;;;3.90;;
79229;SDS011;68663;49.122;17.544;2024-03-02T03:15:08;4.28;;;3.75;;
79229;SDS011;68663;49.122;17.544;2024-03-02T03:17:34;4.55;;;4.03;;
79229;SDS011;68663;49.122;17.544;2024-03-02T03:20:00;4.55;;;3.97;;
79229;SDS011;68663;49.122;17.544;2024-03-02T03:22:26;4.80;;;4.07;;
79229;SDS011;68663;49.122;17.544;2024-03-02T03:24:52;7.55;;;4.25;;
79229;SDS011;68663;49.122;17.544;2024-03-02T03:27:17;5.60;;;4.53;;
79229;SDS011;68663;49.122;17.544;2024-03-02T03:29:43;4.80;;;4.40;;
79229;SDS011;68663;49.122;17.544;2024-03-02T03:32:08;4.17;;;3.77;;
79229;SDS011;68663;49.122;17.544;2024-03-02T03:34:34;4.55;;;4.07;;
79229;SDS011;68663;49.122;17.544;2024-03-02T03:36:59;5.05;;;4.38;;
79229;SDS011;68663;49.122;17.544;2024-03-02T03:39:25;5.30;;;4.00;;
79229;SDS011;68663;49.122;17.544;2024-03-02T03:41:50;5.17;;;4.10;;
79229;SDS011;68663;49.122;17.544;2024-03-02T03:44:16;4.32;;;3.80;;
79229;SDS011;68663;49.122;17.544;2024-03-02T03:46:41;4.50;;;4.05;;
79229;SDS011;68663;49.122;17.544;2024-03-02T03:49:07;4.70;;;4.03;;
79229;SDS011;68663;49.122;17.544;2024-03-02T03:51:33;4.97;;;4.13;;
79229;SDS011;68663;49.122;17.544;2024-03-02T03:53:58;4.63;;;4.10;;
79229;SDS011;68663;49.122;17.544;2024-03-02T03:56:24;4.50;;;3.88;;
79229;SDS011;68663;49.122;17.544;2024-03-02T03:58:49;3.80;;;3.40;;
79229;SDS011;68663;49.122;17.544;2024-03-02T04:01:14;4.90;;;4.40;;
79229;SDS011;68663;49.122;17.544;2024-03-02T04:03:40;4.38;;;3.90;;
79229;SDS011;68663;49.122;17.544;2024-03-02T04:06:05;4.55;;;4.15;;
79229;SDS011;68663;49.122;17.544;2024-03-02T04:08:31;4.60;;;4.07;;
79229;SDS011;68663;49.122;17.544;2024-03-02T04:10:56;4.77;;;4.27;;
79229;SDS011;68663;49.122;17.544;2024-03-02T04:13:21;4.43;;;4.03;;
79229;SDS011;68663;49.122;17.544;2024-03-02T04:15:47;5.10;;;4.17;;
79229;SDS011;68663;49.122;17.544;2024-03-02T04:18:12;6.03;;;4.07;;
79229;SDS011;68663;49.122;17.544;2024-03-02T04:20:38;4.70;;;4.30;;
79229;SDS011;68663;49.122;17.544;2024-03-02T04:23:03;4.80;;;4.30;;
79229;SDS011;68663;49.122;17.544;2024-03-02T04:25:29;4.15;;;3.75;;
79229;SDS011;68663;49.122;17.544;2024-03-02T04:27:54;3.85;;;3.38;;
79229;SDS011;68663;49.122;17.544;2024-03-02T04:30:19;4.37;;;3.60;;
79229;SDS011;68663;49.122;17.544;2024-03-02T04:32:45;5.32;;;3.95;;
79229;SDS011;68663;49.122;17.544;2024-03-02T04:37:39;4.07;;;3.58;;
79229;SDS011;68663;49.122;17.544;2024-03-02T04:40:05;3.80;;;3.40;;
79229;SDS011;68663;49.122;17.544;2024-03-02T04:42:33;4.25;;;3.85;;
79229;SDS011;68663;49.122;17.544;2024-03-02T04:44:59;4.32;;;3.92;;
79229;SDS011;68663;49.122;17.544;2024-03-02T04:47:24;4.33;;;3.63;;
79229;SDS011;68663;49.122;17.544;2024-03-02T04:49:49;4.38;;;3.97;;
79229;SDS011;68663;49.122;17.544;2024-03-02T04:52:15;4.30;;;3.55;;
79229;SDS011;68663;49.122;17.544;2024-03-02T04:54:41;5.28;;;3.72;;
79229;SDS011;68663;49.122;17.544;2024-03-02T04:57:25;4.32;;;3.92;;
79229;SDS011;68663;49.122;17.544;2024-03-02T04:59:51;4.47;;;3.73;;
79229;SDS011;68663;49.122;17.544;2024-03-02T05:02:16;4.70;;;3.90;;
79229;SDS011;68663;49.122;17.544;2024-03-02T05:04:41;4.10;;;3.70;;
79229;SDS011;68663;49.122;17.544;2024-03-02T05:07:07;5.43;;;3.50;;
79229;SDS011;68663;49.122;17.544;2024-03-02T05:09:32;3.83;;;3.33;;
79229;SDS011;68663;49.122;17.544;2024-03-02T05:11:58;4.00;;;3.23;;
79229;SDS011;68663;49.122;17.544;2024-03-02T05:14:43;4.03;;;3.63;;
79229;SDS011;68663;49.122;17.544;2024-03-02T05:17:09;4.30;;;3.63;;
79229;SDS011;68663;49.122;17.544;2024-03-02T05:19:34;4.20;;;3.60;;
79229;SDS011;68663;49.122;17.544;2024-03-02T05:21:59;4.03;;;3.63;;
79229;SDS011;68663;49.122;17.544;2024-03-02T05:24:25;4.90;;;3.88;;
79229;SDS011;68663;49.122;17.544;2024-03-02T05:26:52;4.38;;;3.97;;
79229;SDS011;68663;49.122;17.544;2024-03-02T05:29:18;4.20;;;3.67;;
79229;SDS011;68663;49.122;17.544;2024-03-02T05:31:43;4.22;;;3.45;;
79229;SDS011;68663;49.122;17.544;2024-03-02T05:34:09;4.63;;;4.10;;
79229;SDS011;68663;49.122;17.544;2024-03-02T05:36:34;4.40;;;3.70;;
79229;SDS011;68663;49.122;17.544;2024-03-02T05:39:00;3.92;;;3.53;;
79229;SDS011;68663;49.122;17.544;2024-03-02T05:41:26;4.20;;;3.80;;
79229;SDS011;68663;49.122;17.544;2024-03-02T05:43:51;4.50;;;3.38;;
79229;SDS011;68663;49.122;17.544;2024-03-02T05:46:17;3.50;;;3.20;;
79229;SDS011;68663;49.122;17.544;2024-03-02T05:48:42;4.93;;;3.60;;
79229;SDS011;68663;49.122;17.544;2024-03-02T05:51:07;4.07;;;3.40;;
79229;SDS011;68663;49.122;17.544;2024-03-02T05:53:33;3.73;;;3.23;;
79229;SDS011;68663;49.122;17.544;2024-03-02T05:55:58;4.45;;;3.63;;
79229;SDS011;68663;49.122;17.544;2024-03-02T05:58:24;4.30;;;3.65;;
79229;SDS011;68663;49.122;17.544;2024-03-02T06:00:49;4.63;;;3.15;;
79229;SDS011;68663;49.122;17.544;2024-03-02T06:03:15;4.18;;;3.50;;
79229;SDS011;68663;49.122;17.544;2024-03-02T06:05:40;5.03;;;3.93;;
79229;SDS011;68663;49.122;17.544;2024-03-02T06:08:06;4.85;;;3.65;;
79229;SDS011;68663;49.122;17.544;2024-03-02T06:10:32;4.20;;;3.58;;
79229;SDS011;68663;49.122;17.544;2024-03-02T06:12:57;4.03;;;3.35;;
79229;SDS011;68663;49.122;17.544;2024-03-02T06:15:24;3.80;;;2.95;;
79229;SDS011;68663;49.122;17.544;2024-03-02T06:17:49;5.22;;;3.00;;
79229;SDS011;68663;49.122;17.544;2024-03-02T06:20:16;3.83;;;3.17;;
79229;SDS011;68663;49.122;17.544;2024-03-02T06:22:41;5.20;;;3.53;;
79229;SDS011;68663;49.122;17.544;2024-03-02T06:25:07;3.90;;;3.47;;
79229;SDS011;68663;49.122;17.544;2024-03-02T06:27:32;3.55;;;3.25;;
79229;SDS011;68663;49.122;17.544;2024-03-02T06:29:58;4.38;;;3.45;;
79229;SDS011;68663;49.122;17.544;2024-03-02T06:32:23;5.53;;;3.28;;
79229;SDS011;68663;49.122;17.544;2024-03-02T06:34:50;4.30;;;3.20;;
79229;SDS011;68663;49.122;17.544;2024-03-02T06:37:15;5.00;;;3.35;;
79229;SDS011;68663;49.122;17.544;2024-03-02T06:39:41;4.45;;;3.10;;
79229;SDS011;68663;49.122;17.544;2024-03-02T06:42:06;6.37;;;3.47;;
79229;SDS011;68663;49.122;17.544;2024-03-02T06:44:32;6.97;;;3.53;;
79229;SDS011;68663;49.122;17.544;2024-03-02T06:46:57;8.37;;;4.60;;
79229;SDS011;68663;49.122;17.544;2024-03-02T06:49:22;16.67;;;6.07;;
79229;SDS011;68663;49.122;17.544;2024-03-02T06:51:48;8.95;;;4.35;;
79229;SDS011;68663;49.122;17.544;2024-03-02T06:54:13;20.37;;;5.13;;
79229;SDS011;68663;49.122;17.544;2024-03-02T06:56:38;6.87;;;3.73;;
79229;SDS011;68663;49.122;17.544;2024-03-02T06:59:04;10.03;;;4.87;;
79229;SDS011;68663;49.122;17.544;2024-03-02T07:01:29;8.60;;;4.20;;
79229;SDS011;68663;49.122;17.544;2024-03-02T07:03:55;7.35;;;3.75;;
79229;SDS011;68663;49.122;17.544;2024-03-02T07:06:20;4.80;;;3.63;;
79229;SDS011;68663;49.122;17.544;2024-03-02T07:08:45;7.67;;;4.23;;
79229;SDS011;68663;49.122;17.544;2024-03-02T07:11:11;16.57;;;7.10;;
79229;SDS011;68663;49.122;17.544;2024-03-02T07:13:36;12.07;;;5.27;;
79229;SDS011;68663;49.122;17.544;2024-03-02T07:16:01;9.68;;;5.00;;
79229;SDS011;68663;49.122;17.544;2024-03-02T07:18:36;8.73;;;4.40;;
79229;SDS011;68663;49.122;17.544;2024-03-02T07:21:16;13.25;;;5.03;;
79229;SDS011;68663;49.122;17.544;2024-03-02T07:23:41;10.63;;;4.63;;
79229;SDS011;68663;49.122;17.544;2024-03-02T07:26:06;6.20;;;4.30;;
79229;SDS011;68663;49.122;17.544;2024-03-02T07:28:32;7.25;;;4.82;;
79229;SDS011;68663;49.122;17.544;2024-03-02T07:31:01;9.30;;;4.65;;
79229;SDS011;68663;49.122;17.544;2024-03-02T07:33:29;10.90;;;4.68;;
79229;SDS011;68663;49.122;17.544;2024-03-02T07:35:58;11.10;;;4.70;;
79229;SDS011;68663;49.122;17.544;2024-03-02T07:38:27;9.02;;;4.90;;
79229;SDS011;68663;49.122;17.544;2024-03-02T07:40:54;15.88;;;5.82;;
79229;SDS011;68663;49.122;17.544;2024-03-02T07:43:20;11.52;;;6.15;;
79229;SDS011;68663;49.122;17.544;2024-03-02T07:45:46;15.82;;;7.78;;
79229;SDS011;68663;49.122;17.544;2024-03-02T07:48:11;11.70;;;6.65;;
79229;SDS011;68663;49.122;17.544;2024-03-02T07:50:37;14.75;;;6.78;;
79229;SDS011;68663;49.122;17.544;2024-03-02T07:53:04;12.05;;;6.55;;
79229;SDS011;68663;49.122;17.544;2024-03-02T07:55:30;15.35;;;7.80;;
79229;SDS011;68663;49.122;17.544;2024-03-02T07:57:56;11.95;;;6.65;;
79229;SDS011;68663;49.122;17.544;2024-03-02T08:00:22;11.43;;;6.93;;
79229;SDS011;68663;49.122;17.544;2024-03-02T08:02:48;14.45;;;7.47;;
79229;SDS011;68663;49.122;17.544;2024-03-02T08:05:15;10.30;;;6.75;;
79229;SDS011;68663;49.122;17.544;2024-03-02T08:07:41;25.23;;;9.55;;
79229;SDS011;68663;49.122;17.544;2024-03-02T08:10:10;17.67;;;9.00;;
79229;SDS011;68663;49.122;17.544;2024-03-02T08:12:35;16.15;;;7.50;;
79229;SDS011;68663;49.122;17.544;2024-03-02T08:15:01;14.70;;;7.38;;
79229;SDS011;68663;49.122;17.544;2024-03-02T08:17:26;13.10;;;7.50;;
79229;SDS011;68663;49.122;17.544;2024-03-02T08:19:52;15.80;;;7.47;;
79229;SDS011;68663;49.122;17.544;2024-03-02T08:22:18;12.90;;;7.40;;
79229;SDS011;68663;49.122;17.544;2024-03-02T08:24:43;10.82;;;6.55;;
79229;SDS011;68663;49.122;17.544;2024-03-02T08:27:09;16.52;;;7.05;;
79229;SDS011;68663;49.122;17.544;2024-03-02T08:29:35;13.45;;;6.45;;
79229;SDS011;68663;49.122;17.544;2024-03-02T08:32:00;10.40;;;6.13;;
79229;SDS011;68663;49.122;17.544;2024-03-02T08:34:26;8.98;;;5.72;;
79229;SDS011;68663;49.122;17.544;2024-03-02T08:36:51;10.82;;;6.57;;
79229;SDS011;68663;49.122;17.544;2024-03-02T08:39:17;9.40;;;6.18;;
79229;SDS011;68663;49.122;17.544;2024-03-02T08:41:44;9.75;;;6.82;;
79229;SDS011;68663;49.122;17.544;2024-03-02T08:44:10;9.15;;;6.28;;
79229;SDS011;68663;49.122;17.544;2024-03-02T08:46:36;10.63;;;6.80;;
79229;SDS011;68663;49.122;17.544;2024-03-02T08:49:02;8.27;;;5.80;;
79229;SDS011;68663;49.122;17.544;2024-03-02T08:51:28;9.68;;;6.28;;
79229;SDS011;68663;49.122;17.544;2024-03-02T08:53:53;12.25;;;6.38;;
79229;SDS011;68663;49.122;17.544;2024-03-02T08:56:19;9.43;;;6.00;;
79229;SDS011;68663;49.122;17.544;2024-03-02T08:58:45;8.07;;;5.25;;
79229;SDS011;68663;49.122;17.544;2024-03-02T09:01:11;10.82;;;7.35;;
79229;SDS011;68663;49.122;17.544;2024-03-02T09:03:36;12.45;;;6.95;;
79229;SDS011;68663;49.122;17.544;2024-03-02T09:06:02;9.90;;;6.45;;
79229;SDS011;68663;49.122;17.544;2024-03-02T09:08:28;10.85;;;6.40;;
79229;SDS011;68663;49.122;17.544;2024-03-02T09:10:54;9.85;;;6.75;;
79229;SDS011;68663;49.122;17.544;2024-03-02T09:13:20;9.98;;;5.57;;
79229;SDS011;68663;49.122;17.544;2024-03-02T09:15:46;11.25;;;6.85;;
79229;SDS011;68663;49.122;17.544;2024-03-02T09:18:11;9.73;;;6.45;;
79229;SDS011;68663;49.122;17.544;2024-03-02T09:20:37;10.70;;;7.57;;
79229;SDS011;68663;49.122;17.544;2024-03-02T09:23:02;12.30;;;6.97;;
79229;SDS011;68663;49.122;17.544;2024-03-02T09:25:27;15.93;;;7.80;;
79229;SDS011;68663;49.122;17.544;2024-03-02T09:27:53;9.13;;;7.30;;
79229;SDS011;68663;49.122;17.544;2024-03-02T09:30:18;14.47;;;7.73;;
79229;SDS011;68663;49.122;17.544;2024-03-02T09:32:43;14.27;;;9.50;;
79229;SDS011;68663;49.122;17.544;2024-03-02T09:35:09;12.77;;;8.13;;
79229;SDS011;68663;49.122;17.544;2024-03-02T09:37:34;12.40;;;8.70;;
79229;SDS011;68663;49.122;17.544;2024-03-02T09:40:00;12.20;;;8.07;;
79229;SDS011;68663;49.122;17.544;2024-03-02T09:42:26;15.35;;;8.40;;
79229;SDS011;68663;49.122;17.544;2024-03-02T09:44:52;10.43;;;6.82;;
79229;SDS011;68663;49.122;17.544;2024-03-02T09:47:17;14.80;;;7.97;;
79229;SDS011;68663;49.122;17.544;2024-03-02T09:49:43;11.82;;;7.45;;
79229;SDS011;68663;49.122;17.544;2024-03-02T09:52:09;10.43;;;7.13;;
79229;SDS011;68663;49.122;17.544;2024-03-02T09:54:35;11.20;;;7.15;;
79229;SDS011;68663;49.122;17.544;2024-03-02T09:57:01;13.45;;;7.22;;
79229;SDS011;68663;49.122;17.544;2024-03-02T09:59:27;9.50;;;6.82;;
79229;SDS011;68663;49.122;17.544;2024-03-02T10:02:00;9.30;;;6.63;;
79229;SDS011;68663;49.122;17.544;2024-03-02T10:04:28;10.13;;;6.65;;
79229;SDS011;68663;49.122;17.544;2024-03-02T10:09:38;12.55;;;8.07;;
79229;SDS011;68663;49.122;17.544;2024-03-02T10:12:04;34.00;;;10.88;;
79229;SDS011;68663;49.122;17.544;2024-03-02T10:14:30;21.98;;;9.18;;
79229;SDS011;68663;49.122;17.544;2024-03-02T10:17:01;14.50;;;8.15;;
79229;SDS011;68663;49.122;17.544;2024-03-02T10:19:27;12.45;;;8.98;;
79229;SDS011;68663;49.122;17.544;2024-03-02T10:21:57;13.10;;;8.73;;
79229;SDS011;68663;49.122;17.544;2024-03-02T10:24:23;9.65;;;7.40;;
79229;SDS011;68663;49.122;17.544;2024-03-02T10:26:49;9.93;;;7.30;;
79229;SDS011;68663;49.122;17.544;2024-03-02T10:29:15;11.80;;;7.18;;
79229;SDS011;68663;49.122;17.544;2024-03-02T10:31:41;9.35;;;7.28;;
79229;SDS011;68663;49.122;17.544;2024-03-02T10:34:08;10.57;;;6.72;;
79229;SDS011;68663;49.122;17.544;2024-03-02T10:36:35;10.95;;;7.95;;
79229;SDS011;68663;49.122;17.544;2024-03-02T10:39:05;11.02;;;8.55;;
79229;SDS011;68663;49.122;17.544;2024-03-02T10:41:32;10.77;;;7.72;;
79229;SDS011;68663;49.122;17.544;2024-03-02T10:43:59;8.93;;;6.78;;
79229;SDS011;68663;49.122;17.544;2024-03-02T10:46:28;8.00;;;6.55;;
79229;SDS011;68663;49.122;17.544;2024-03-02T10:48:54;10.88;;;7.80;;
79229;SDS011;68663;49.122;17.544;2024-03-02T10:51:21;12.35;;;6.72;;
79229;SDS011;68663;49.122;17.544;2024-03-02T10:53:46;11.20;;;7.13;;
79229;SDS011;68663;49.122;17.544;2024-03-02T10:56:13;8.20;;;6.45;;
79229;SDS011;68663;49.122;17.544;2024-03-02T10:58:47;12.75;;;7.03;;
79229;SDS011;68663;49.122;17.544;2024-03-02T11:01:15;16.13;;;6.78;;
79229;SDS011;68663;49.122;17.544;2024-03-02T11:03:42;18.70;;;7.47;;
79229;SDS011;68663;49.122;17.544;2024-03-02T11:06:09;17.88;;;7.28;;
79229;SDS011;68663;49.122;17.544;2024-03-02T11:08:38;14.35;;;7.22;;
79229;SDS011;68663;49.122;17.544;2024-03-02T11:11:10;9.23;;;6.57;;
79229;SDS011;68663;49.122;17.544;2024-03-02T11:13:41;10.18;;;6.72;;
79229;SDS011;68663;49.122;17.544;2024-03-02T11:16:13;9.18;;;6.88;;
79229;SDS011;68663;49.122;17.544;2024-03-02T11:18:51;8.30;;;6.35;;
79229;SDS011;68663;49.122;17.544;2024-03-02T11:21:17;10.27;;;7.13;;
79229;SDS011;68663;49.122;17.544;2024-03-02T11:23:43;7.32;;;5.88;;
79229;SDS011;68663;49.122;17.544;2024-03-02T11:26:21;9.90;;;7.35;;
79229;SDS011;68663;49.122;17.544;2024-03-02T11:28:49;10.65;;;6.25;;
79229;SDS011;68663;49.122;17.544;2024-03-02T11:31:14;9.77;;;6.80;;
79229;SDS011;68663;49.122;17.544;2024-03-02T11:33:39;10.63;;;6.73;;
79229;SDS011;68663;49.122;17.544;2024-03-02T11:36:08;7.75;;;6.38;;
79229;SDS011;68663;49.122;17.544;2024-03-02T11:38:34;8.65;;;5.68;;
79229;SDS011;68663;49.122;17.544;2024-03-02T11:41:10;12.27;;;5.82;;
79229;SDS011;68663;49.122;17.544;2024-03-02T11:43:39;10.15;;;6.32;;
79229;SDS011;68663;49.122;17.544;2024-03-02T11:46:07;14.30;;;7.10;;
79229;SDS011;68663;49.122;17.544;2024-03-02T11:48:33;17.15;;;8.23;;
79229;SDS011;68663;49.122;17.544;2024-03-02T11:53:27;22.50;;;9.27;;
79229;SDS011;68663;49.122;17.544;2024-03-02T11:55:56;23.35;;;9.82;;
79229;SDS011;68663;49.122;17.544;2024-03-02T11:58:23;24.10;;;9.75;;
79229;SDS011;68663;49.122;17.544;2024-03-02T12:00:53;24.38;;;10.00;;
79229;SDS011;68663;49.122;17.544;2024-03-02T12:03:20;23.40;;;10.50;;
79229;SDS011;68663;49.122;17.544;2024-03-02T12:05:52;30.00;;;10.65;;
79229;SDS011;68663;49.122;17.544;2024-03-02T12:08:19;28.67;;;11.15;;
79229;SDS011;68663;49.122;17.544;2024-03-02T12:10:55;26.33;;;10.13;;
79229;SDS011;68663;49.122;17.544;2024-03-02T12:13:22;24.65;;;10.77;;
79229;SDS011;68663;49.122;17.544;2024-03-02T12:15:48;25.98;;;10.30;;
79229;SDS011;68663;49.122;17.544;2024-03-02T12:18:19;27.27;;;10.70;;
79229;SDS011;68663;49.122;17.544;2024-03-02T12:20:44;23.15;;;11.07;;
79229;SDS011;68663;49.122;17.544;2024-03-02T12:23:09;26.07;;;11.30;;
79229;SDS011;68663;49.122;17.544;2024-03-02T12:25:35;20.77;;;10.18;;
79229;SDS011;68663;49.122;17.544;2024-03-02T12:28:01;28.92;;;10.80;;
79229;SDS011;68663;49.122;17.544;2024-03-02T12:30:27;24.65;;;11.15;;
79229;SDS011;68663;49.122;17.544;2024-03-02T12:32:55;26.38;;;11.35;;
79229;SDS011;68663;49.122;17.544;2024-03-02T12:35:21;20.85;;;9.38;;
79229;SDS011;68663;49.122;17.544;2024-03-02T12:37:49;25.75;;;10.93;;
79229;SDS011;68663;49.122;17.544;2024-03-02T12:40:17;20.88;;;9.82;;
79229;SDS011;68663;49.122;17.544;2024-03-02T12:42:44;24.73;;;10.20;;
79229;SDS011;68663;49.122;17.544;2024-03-02T12:45:10;20.65;;;10.05;;
79229;SDS011;68663;49.122;17.544;2024-03-02T12:47:36;18.33;;;9.32;;
79229;SDS011;68663;49.122;17.544;2024-03-02T12:50:05;27.33;;;10.93;;
79229;SDS011;68663;49.122;17.544;2024-03-02T12:52:32;20.15;;;9.57;;
79229;SDS011;68663;49.122;17.544;2024-03-02T12:54:59;19.92;;;9.70;;
79229;SDS011;68663;49.122;17.544;2024-03-02T12:57:27;19.48;;;10.23;;
79229;SDS011;68663;49.122;17.544;2024-03-02T13:00:06;19.77;;;10.35;;
79229;SDS011;68663;49.122;17.544;2024-03-02T13:02:34;18.23;;;9.10;;
79229;SDS011;68663;49.122;17.544;2024-03-02T13:05:00;19.42;;;10.02;;
79229;SDS011;68663;49.122;17.544;2024-03-02T13:07:25;18.98;;;9.20;;
79229;SDS011;68663;49.122;17.544;2024-03-02T13:09:52;15.00;;;8.75;;
79229;SDS011;68663;49.122;17.544;2024-03-02T13:12:20;19.70;;;9.20;;
79229;SDS011;68663;49.122;17.544;2024-03-02T13:14:49;22.67;;;10.25;;
79229;SDS011;68663;49.122;17.544;2024-03-02T13:17:20;17.95;;;8.30;;
79229;SDS011;68663;49.122;17.544;2024-03-02T13:22:18;20.52;;;9.25;;
79229;SDS011;68663;49.122;17.544;2024-03-02T13:24:43;19.92;;;9.85;;
79229;SDS011;68663;49.122;17.544;2024-03-02T13:27:09;19.25;;;10.27;;
79229;SDS011;68663;49.122;17.544;2024-03-02T13:29:34;18.88;;;9.43;;
79229;SDS011;68663;49.122;17.544;2024-03-02T13:32:00;16.92;;;8.75;;
79229;SDS011;68663;49.122;17.544;2024-03-02T13:34:25;18.30;;;9.03;;
79229;SDS011;68663;49.122;17.544;2024-03-02T13:36:51;15.40;;;8.18;;
79229;SDS011;68663;49.122;17.544;2024-03-02T13:39:16;17.17;;;9.13;;
79229;SDS011;68663;49.122;17.544;2024-03-02T13:41:41;15.07;;;8.70;;
79229;SDS011;68663;49.122;17.544;2024-03-02T13:44:07;13.52;;;8.82;;
79229;SDS011;68663;49.122;17.544;2024-03-02T13:46:32;16.85;;;8.00;;
79229;SDS011;68663;49.122;17.544;2024-03-02T13:48:57;17.63;;;8.97;;
79229;SDS011;68663;49.122;17.544;2024-03-02T13:51:23;13.88;;;8.07;;
79229;SDS011;68663;49.122;17.544;2024-03-02T13:53:50;16.63;;;8.73;;
79229;SDS011;68663;49.122;17.544;2024-03-02T13:56:15;14.90;;;8.68;;
79229;SDS011;68663;49.122;17.544;2024-03-02T13:58:42;17.50;;;8.18;;
79229;SDS011;68663;49.122;17.544;2024-03-02T14:01:08;17.58;;;8.50;;
79229;SDS011;68663;49.122;17.544;2024-03-02T14:03:34;16.02;;;7.60;;
79229;SDS011;68663;49.122;17.544;2024-03-02T14:06:00;13.55;;;8.63;;
79229;SDS011;68663;49.122;17.544;2024-03-02T14:08:25;14.65;;;7.97;;
79229;SDS011;68663;49.122;17.544;2024-03-02T14:10:50;13.13;;;8.40;;
79229;SDS011;68663;49.122;17.544;2024-03-02T14:13:16;13.13;;;7.30;;
79229;SDS011;68663;49.122;17.544;2024-03-02T14:15:41;14.35;;;7.28;;
79229;SDS011;68663;49.122;17.544;2024-03-02T14:18:07;15.27;;;7.53;;
79229;SDS011;68663;49.122;17.544;2024-03-02T14:20:36;16.00;;;7.70;;
79229;SDS011;68663;49.122;17.544;2024-03-02T14:23:02;13.27;;;7.95;;
79229;SDS011;68663;49.122;17.544;2024-03-02T14:25:28;14.23;;;8.57;;
79229;SDS011;68663;49.122;17.544;2024-03-02T14:27:56;13.60;;;7.50;;
79229;SDS011;68663;49.122;17.544;2024-03-02T14:30:22;12.57;;;7.30;;
79229;SDS011;68663;49.122;17.544;2024-03-02T14:32:48;11.48;;;7.45;;
79229;SDS011;68663;49.122;17.544;2024-03-02T14:35:14;12.73;;;7.28;;